sensor_id;sensor_type;location;lat;lon;timestamp;P1;durP1;ratioP1;P2;durP2;ratioP2
2338;SDS011;1180;51.438;6.978;2023-02-15T00:01:22;22.00;;;15.57;;
2338;SDS011;1180;51.438;6.978;2023-02-15T00:03:48;21.80;;;16.50;;
2338;SDS011;1180;51.438;6.978;2023-02-15T00:06:14;20.60;;;14.53;;
2338;SDS011;1180;51.438;6.978;2023-02-15T00:08:39;20.10;;;14.07;;
2338;SDS011;1180;51.438;6.978;2023-02-15T00:13:30;19.30;;;14.00;;
2338;SDS011;1180;51.438;6.978;2023-02-15T00:16:02;19.47;;;13.97;;
2338;SDS011;1180;51.438;6.978;2023-02-15T00:18:29;22.73;;;15.03;;
2338;SDS011;1180;51.438;6.978;2023-02-15T00:20:55;22.63;;;13.70;;
2338;SDS011;1180;51.438;6.978;2023-02-15T00:23:20;21.27;;;13.03;;
2338;SDS011;1180;51.438;6.978;2023-02-15T00:25:45;20.50;;;14.37;;
2338;SDS011;1180;51.438;6.978;2023-02-15T00:28:11;20.10;;;14.10;;
2338;SDS011;1180;51.438;6.978;2023-02-15T00:30:36;21.97;;;14.53;;
2338;SDS011;1180;51.438;6.978;2023-02-15T00:33:02;21.40;;;14.80;;
2338;SDS011;1180;51.438;6.978;2023-02-15T00:35:27;21.03;;;14.47;;
2338;SDS011;1180;51.438;6.978;2023-02-15T00:37:52;22.13;;;14.77;;
2338;SDS011;1180;51.438;6.978;2023-02-15T00:40:18;25.97;;;17.10;;
2338;SDS011;1180;51.438;6.978;2023-02-15T00:42:43;23.57;;;16.17;;
2338;SDS011;1180;51.438;6.978;2023-02-15T00:45:09;20.63;;;16.17;;
2338;SDS011;1180;51.438;6.978;2023-02-15T00:47:34;21.70;;;14.97;;
2338;SDS011;1180;51.438;6.978;2023-02-15T00:49:59;19.30;;;15.40;;
2338;SDS011;1180;51.438;6.978;2023-02-15T00:52:25;20.10;;;15.43;;
2338;SDS011;1180;51.438;6.978;2023-02-15T00:54:50;21.27;;;15.13;;
2338;SDS011;1180;51.438;6.978;2023-02-15T00:57:15;27.67;;;15.37;;
2338;SDS011;1180;51.438;6.978;2023-02-15T00:59:41;22.53;;;15.90;;
2338;SDS011;1180;51.438;6.978;2023-02-15T01:02:06;20.83;;;15.43;;
2338;SDS011;1180;51.438;6.978;2023-02-15T01:04:31;24.60;;;16.30;;
2338;SDS011;1180;51.438;6.978;2023-02-15T01:06:56;23.23;;;15.23;;
2338;SDS011;1180;51.438;6.978;2023-02-15T01:09:22;18.70;;;14.87;;
2338;SDS011;1180;51.438;6.978;2023-02-15T01:11:47;21.10;;;16.03;;
2338;SDS011;1180;51.438;6.978;2023-02-15T01:14:13;21.00;;;14.37;;
2338;SDS011;1180;51.438;6.978;2023-02-15T01:16:39;26.30;;;16.93;;
2338;SDS011;1180;51.438;6.978;2023-02-15T01:19:04;22.13;;;16.30;;
2338;SDS011;1180;51.438;6.978;2023-02-15T01:21:31;25.27;;;16.70;;
2338;SDS011;1180;51.438;6.978;2023-02-15T01:23:59;23.20;;;16.40;;
2338;SDS011;1180;51.438;6.978;2023-02-15T01:26:24;22.30;;;17.33;;
2338;SDS011;1180;51.438;6.978;2023-02-15T01:28:50;25.57;;;15.93;;
2338;SDS011;1180;51.438;6.978;2023-02-15T01:31:18;23.10;;;17.07;;
2338;SDS011;1180;51.438;6.978;2023-02-15T01:33:46;23.67;;;16.53;;
2338;SDS011;1180;51.438;6.978;2023-02-15T01:36:12;24.77;;;18.33;;
2338;SDS011;1180;51.438;6.978;2023-02-15T01:38:37;22.70;;;15.50;;
2338;SDS011;1180;51.438;6.978;2023-02-15T01:41:04;23.67;;;17.30;;
2338;SDS011;1180;51.438;6.978;2023-02-15T01:43:48;21.03;;;14.93;;
2338;SDS011;1180;51.438;6.978;2023-02-15T01:46:16;24.47;;;17.67;;
2338;SDS011;1180;51.438;6.978;2023-02-15T01:48:46;22.50;;;15.97;;
2338;SDS011;1180;51.438;6.978;2023-02-15T01:51:14;22.30;;;15.20;;
2338;SDS011;1180;51.438;6.978;2023-02-15T01:53:46;22.03;;;15.43;;
2338;SDS011;1180;51.438;6.978;2023-02-15T01:56:22;26.50;;;17.30;;
2338;SDS011;1180;51.438;6.978;2023-02-15T01:58:51;24.43;;;16.17;;
2338;SDS011;1180;51.438;6.978;2023-02-15T02:01:20;24.97;;;16.47;;
2338;SDS011;1180;51.438;6.978;2023-02-15T02:03:51;22.90;;;15.77;;
2338;SDS011;1180;51.438;6.978;2023-02-15T02:06:29;21.70;;;15.77;;
2338;SDS011;1180;51.438;6.978;2023-02-15T02:08:56;23.20;;;16.97;;
2338;SDS011;1180;51.438;6.978;2023-02-15T02:11:23;25.23;;;16.77;;
2338;SDS011;1180;51.438;6.978;2023-02-15T02:13:48;25.43;;;18.13;;
2338;SDS011;1180;51.438;6.978;2023-02-15T02:35:41;22.07;;;16.00;;
2338;SDS011;1180;51.438;6.978;2023-02-15T02:38:27;23.37;;;16.63;;
2338;SDS011;1180;51.438;6.978;2023-02-15T02:46:15;24.60;;;17.70;;
2338;SDS011;1180;51.438;6.978;2023-02-15T02:48:45;24.30;;;18.03;;
2338;SDS011;1180;51.438;6.978;2023-02-15T02:51:13;25.17;;;17.20;;
2338;SDS011;1180;51.438;6.978;2023-02-15T02:53:39;28.13;;;19.37;;
2338;SDS011;1180;51.438;6.978;2023-02-15T02:56:14;24.87;;;18.60;;
2338;SDS011;1180;51.438;6.978;2023-02-15T02:58:55;31.53;;;18.20;;
2338;SDS011;1180;51.438;6.978;2023-02-15T03:01:33;29.33;;;17.87;;
2338;SDS011;1180;51.438;6.978;2023-02-15T03:04:07;22.90;;;17.37;;
2338;SDS011;1180;51.438;6.978;2023-02-15T03:09:10;29.70;;;18.20;;
2338;SDS011;1180;51.438;6.978;2023-02-15T03:11:46;25.00;;;18.00;;
2338;SDS011;1180;51.438;6.978;2023-02-15T03:14:13;23.33;;;18.57;;
2338;SDS011;1180;51.438;6.978;2023-02-15T03:16:41;29.17;;;19.07;;
2338;SDS011;1180;51.438;6.978;2023-02-15T03:19:17;25.10;;;17.70;;
2338;SDS011;1180;51.438;6.978;2023-02-15T03:21:49;30.77;;;18.80;;
2338;SDS011;1180;51.438;6.978;2023-02-15T03:24:51;24.77;;;17.67;;
2338;SDS011;1180;51.438;6.978;2023-02-15T03:27:19;28.90;;;18.77;;
2338;SDS011;1180;51.438;6.978;2023-02-15T03:29:53;28.07;;;19.33;;
2338;SDS011;1180;51.438;6.978;2023-02-15T03:32:22;30.90;;;19.17;;
2338;SDS011;1180;51.438;6.978;2023-02-15T03:34:50;27.57;;;18.40;;
2338;SDS011;1180;51.438;6.978;2023-02-15T03:43:08;25.73;;;17.70;;
2338;SDS011;1180;51.438;6.978;2023-02-15T03:45:40;29.70;;;20.13;;
2338;SDS011;1180;51.438;6.978;2023-02-15T03:48:20;24.07;;;17.43;;
2338;SDS011;1180;51.438;6.978;2023-02-15T03:50:49;27.63;;;19.43;;
2338;SDS011;1180;51.438;6.978;2023-02-15T03:53:35;27.70;;;17.47;;
2338;SDS011;1180;51.438;6.978;2023-02-15T03:56:01;30.60;;;22.07;;
2338;SDS011;1180;51.438;6.978;2023-02-15T03:58:27;26.10;;;17.47;;
2338;SDS011;1180;51.438;6.978;2023-02-15T04:01:13;26.03;;;19.90;;
2338;SDS011;1180;51.438;6.978;2023-02-15T04:04:19;24.90;;;19.13;;
2338;SDS011;1180;51.438;6.978;2023-02-15T04:06:47;27.07;;;18.97;;
2338;SDS011;1180;51.438;6.978;2023-02-15T04:09:13;30.00;;;20.43;;
2338;SDS011;1180;51.438;6.978;2023-02-15T04:11:57;28.30;;;20.63;;
2338;SDS011;1180;51.438;6.978;2023-02-15T04:14:22;32.10;;;18.93;;
2338;SDS011;1180;51.438;6.978;2023-02-15T04:17:07;29.40;;;19.77;;
2338;SDS011;1180;51.438;6.978;2023-02-15T04:19:34;28.23;;;17.40;;
2338;SDS011;1180;51.438;6.978;2023-02-15T04:22:18;27.77;;;19.57;;
2338;SDS011;1180;51.438;6.978;2023-02-15T04:25:02;29.93;;;19.67;;
2338;SDS011;1180;51.438;6.978;2023-02-15T04:27:44;36.00;;;20.00;;
2338;SDS011;1180;51.438;6.978;2023-02-15T04:30:12;26.40;;;18.40;;
2338;SDS011;1180;51.438;6.978;2023-02-15T04:32:39;28.57;;;19.43;;
2338;SDS011;1180;51.438;6.978;2023-02-15T04:35:05;29.57;;;20.70;;
2338;SDS011;1180;51.438;6.978;2023-02-15T04:37:31;31.90;;;20.33;;
2338;SDS011;1180;51.438;6.978;2023-02-15T04:39:57;28.60;;;20.30;;
2338;SDS011;1180;51.438;6.978;2023-02-15T04:42:26;28.40;;;19.93;;
2338;SDS011;1180;51.438;6.978;2023-02-15T04:44:52;32.10;;;19.87;;
2338;SDS011;1180;51.438;6.978;2023-02-15T04:47:18;28.93;;;19.57;;
2338;SDS011;1180;51.438;6.978;2023-02-15T04:49:43;31.43;;;21.57;;
2338;SDS011;1180;51.438;6.978;2023-02-15T04:52:08;28.77;;;19.93;;
2338;SDS011;1180;51.438;6.978;2023-02-15T04:54:34;31.73;;;20.13;;
2338;SDS011;1180;51.438;6.978;2023-02-15T04:56:59;29.53;;;21.53;;
2338;SDS011;1180;51.438;6.978;2023-02-15T04:59:24;32.10;;;20.70;;
2338;SDS011;1180;51.438;6.978;2023-02-15T05:01:50;30.03;;;20.27;;
2338;SDS011;1180;51.438;6.978;2023-02-15T05:04:15;29.90;;;19.13;;
2338;SDS011;1180;51.438;6.978;2023-02-15T05:06:41;30.10;;;21.60;;
2338;SDS011;1180;51.438;6.978;2023-02-15T05:09:06;28.20;;;19.57;;
2338;SDS011;1180;51.438;6.978;2023-02-15T05:11:31;31.27;;;21.40;;
2338;SDS011;1180;51.438;6.978;2023-02-15T05:13:57;29.93;;;20.93;;
2338;SDS011;1180;51.438;6.978;2023-02-15T05:16:22;28.00;;;19.00;;
2338;SDS011;1180;51.438;6.978;2023-02-15T05:18:47;28.60;;;20.33;;
2338;SDS011;1180;51.438;6.978;2023-02-15T05:21:13;31.87;;;21.67;;
2338;SDS011;1180;51.438;6.978;2023-02-15T05:23:41;27.00;;;19.70;;
2338;SDS011;1180;51.438;6.978;2023-02-15T05:26:07;30.70;;;20.70;;
2338;SDS011;1180;51.438;6.978;2023-02-15T05:28:54;28.30;;;20.63;;
2338;SDS011;1180;51.438;6.978;2023-02-15T05:31:19;34.27;;;21.17;;
2338;SDS011;1180;51.438;6.978;2023-02-15T05:33:45;28.87;;;18.97;;
2338;SDS011;1180;51.438;6.978;2023-02-15T05:36:10;34.13;;;20.80;;
2338;SDS011;1180;51.438;6.978;2023-02-15T05:38:36;27.73;;;19.63;;
2338;SDS011;1180;51.438;6.978;2023-02-15T05:41:03;27.33;;;19.70;;
2338;SDS011;1180;51.438;6.978;2023-02-15T05:43:29;30.83;;;20.07;;
2338;SDS011;1180;51.438;6.978;2023-02-15T05:45:55;31.17;;;21.20;;
2338;SDS011;1180;51.438;6.978;2023-02-15T05:48:21;28.73;;;21.20;;
2338;SDS011;1180;51.438;6.978;2023-02-15T05:53:29;28.97;;;20.23;;
2338;SDS011;1180;51.438;6.978;2023-02-15T05:55:56;29.90;;;20.53;;
2338;SDS011;1180;51.438;6.978;2023-02-15T05:58:25;31.10;;;19.87;;
2338;SDS011;1180;51.438;6.978;2023-02-15T06:00:51;28.10;;;18.90;;
2338;SDS011;1180;51.438;6.978;2023-02-15T06:03:16;27.57;;;17.23;;
2338;SDS011;1180;51.438;6.978;2023-02-15T06:05:42;35.23;;;21.90;;
2338;SDS011;1180;51.438;6.978;2023-02-15T06:08:07;27.83;;;20.83;;
2338;SDS011;1180;51.438;6.978;2023-02-15T06:10:32;30.17;;;20.90;;
2338;SDS011;1180;51.438;6.978;2023-02-15T06:12:58;28.90;;;19.77;;
2338;SDS011;1180;51.438;6.978;2023-02-15T06:15:23;31.90;;;20.33;;
2338;SDS011;1180;51.438;6.978;2023-02-15T06:17:48;28.10;;;20.43;;
2338;SDS011;1180;51.438;6.978;2023-02-15T06:20:14;26.53;;;19.87;;
2338;SDS011;1180;51.438;6.978;2023-02-15T06:22:39;34.13;;;20.90;;
2338;SDS011;1180;51.438;6.978;2023-02-15T06:25:04;31.30;;;19.63;;
2338;SDS011;1180;51.438;6.978;2023-02-15T06:27:30;27.67;;;19.50;;
2338;SDS011;1180;51.438;6.978;2023-02-15T06:29:55;30.47;;;20.27;;
2338;SDS011;1180;51.438;6.978;2023-02-15T06:32:21;29.63;;;20.10;;
2338;SDS011;1180;51.438;6.978;2023-02-15T06:34:46;29.80;;;20.50;;
2338;SDS011;1180;51.438;6.978;2023-02-15T06:37:12;32.60;;;19.30;;
2338;SDS011;1180;51.438;6.978;2023-02-15T06:39:37;31.60;;;20.47;;
2338;SDS011;1180;51.438;6.978;2023-02-15T06:42:02;34.93;;;20.07;;
2338;SDS011;1180;51.438;6.978;2023-02-15T06:44:28;32.13;;;21.53;;
2338;SDS011;1180;51.438;6.978;2023-02-15T06:46:53;33.87;;;22.50;;
2338;SDS011;1180;51.438;6.978;2023-02-15T06:49:18;32.43;;;23.00;;
2338;SDS011;1180;51.438;6.978;2023-02-15T06:51:44;35.30;;;21.77;;
2338;SDS011;1180;51.438;6.978;2023-02-15T06:54:09;30.07;;;20.43;;
2338;SDS011;1180;51.438;6.978;2023-02-15T06:56:34;29.53;;;20.10;;
2338;SDS011;1180;51.438;6.978;2023-02-15T06:59:00;33.77;;;20.50;;
2338;SDS011;1180;51.438;6.978;2023-02-15T07:01:25;26.87;;;18.00;;
2338;SDS011;1180;51.438;6.978;2023-02-15T07:03:51;31.20;;;20.53;;
2338;SDS011;1180;51.438;6.978;2023-02-15T07:06:16;27.00;;;18.10;;
2338;SDS011;1180;51.438;6.978;2023-02-15T07:08:42;33.40;;;19.20;;
2338;SDS011;1180;51.438;6.978;2023-02-15T07:11:07;28.43;;;19.07;;
2338;SDS011;1180;51.438;6.978;2023-02-15T07:13:51;24.50;;;18.23;;
2338;SDS011;1180;51.438;6.978;2023-02-15T07:16:19;26.70;;;18.27;;
2338;SDS011;1180;51.438;6.978;2023-02-15T07:18:45;26.83;;;19.07;;
2338;SDS011;1180;51.438;6.978;2023-02-15T07:21:10;30.50;;;19.80;;
2338;SDS011;1180;51.438;6.978;2023-02-15T07:23:36;28.13;;;18.60;;
2338;SDS011;1180;51.438;6.978;2023-02-15T07:26:05;23.57;;;18.30;;
2338;SDS011;1180;51.438;6.978;2023-02-15T07:28:34;26.90;;;18.93;;
2338;SDS011;1180;51.438;6.978;2023-02-15T07:31:03;26.77;;;17.40;;
2338;SDS011;1180;51.438;6.978;2023-02-15T07:33:30;27.40;;;19.00;;
2338;SDS011;1180;51.438;6.978;2023-02-15T07:35:56;26.73;;;17.50;;
2338;SDS011;1180;51.438;6.978;2023-02-15T07:38:23;24.50;;;18.30;;
2338;SDS011;1180;51.438;6.978;2023-02-15T07:40:57;23.30;;;16.93;;
2338;SDS011;1180;51.438;6.978;2023-02-15T07:43:27;27.63;;;17.73;;
2338;SDS011;1180;51.438;6.978;2023-02-15T07:45:54;33.87;;;20.10;;
2338;SDS011;1180;51.438;6.978;2023-02-15T07:48:21;21.93;;;15.80;;
2338;SDS011;1180;51.438;6.978;2023-02-15T07:50:47;24.60;;;16.80;;
2338;SDS011;1180;51.438;6.978;2023-02-15T07:53:12;28.17;;;19.10;;
2338;SDS011;1180;51.438;6.978;2023-02-15T07:55:38;25.47;;;17.07;;
2338;SDS011;1180;51.438;6.978;2023-02-15T07:58:03;23.30;;;17.30;;
2338;SDS011;1180;51.438;6.978;2023-02-15T08:00:29;28.43;;;18.03;;
2338;SDS011;1180;51.438;6.978;2023-02-15T08:02:55;25.30;;;18.20;;
2338;SDS011;1180;51.438;6.978;2023-02-15T08:05:40;27.93;;;18.33;;
2338;SDS011;1180;51.438;6.978;2023-02-15T08:08:07;24.30;;;18.50;;
2338;SDS011;1180;51.438;6.978;2023-02-15T08:10:34;24.70;;;17.07;;
2338;SDS011;1180;51.438;6.978;2023-02-15T08:13:19;25.23;;;17.23;;
2338;SDS011;1180;51.438;6.978;2023-02-15T08:15:48;26.33;;;17.07;;
2338;SDS011;1180;51.438;6.978;2023-02-15T08:18:14;29.37;;;18.60;;
2338;SDS011;1180;51.438;6.978;2023-02-15T08:20:39;24.40;;;16.23;;
2338;SDS011;1180;51.438;6.978;2023-02-15T08:23:05;24.70;;;17.20;;
2338;SDS011;1180;51.438;6.978;2023-02-15T08:25:30;25.73;;;16.50;;
2338;SDS011;1180;51.438;6.978;2023-02-15T08:27:55;22.27;;;16.83;;
2338;SDS011;1180;51.438;6.978;2023-02-15T08:30:20;23.83;;;16.90;;
2338;SDS011;1180;51.438;6.978;2023-02-15T08:32:46;26.20;;;15.93;;
2338;SDS011;1180;51.438;6.978;2023-02-15T08:35:11;22.27;;;16.73;;
2338;SDS011;1180;51.438;6.978;2023-02-15T08:37:37;22.43;;;16.20;;
2338;SDS011;1180;51.438;6.978;2023-02-15T08:40:02;24.00;;;16.30;;
2338;SDS011;1180;51.438;6.978;2023-02-15T08:42:28;22.70;;;16.47;;
2338;SDS011;1180;51.438;6.978;2023-02-15T08:44:53;22.83;;;15.20;;
2338;SDS011;1180;51.438;6.978;2023-02-15T08:47:19;20.83;;;15.57;;
2338;SDS011;1180;51.438;6.978;2023-02-15T08:49:44;25.13;;;15.73;;
2338;SDS011;1180;51.438;6.978;2023-02-15T08:52:09;21.03;;;15.00;;
2338;SDS011;1180;51.438;6.978;2023-02-15T08:54:35;24.40;;;16.33;;
2338;SDS011;1180;51.438;6.978;2023-02-15T08:57:00;24.10;;;15.57;;
2338;SDS011;1180;51.438;6.978;2023-02-15T08:59:25;23.70;;;15.43;;
2338;SDS011;1180;51.438;6.978;2023-02-15T09:01:52;21.83;;;13.63;;
2338;SDS011;1180;51.438;6.978;2023-02-15T09:04:17;19.77;;;14.50;;
2338;SDS011;1180;51.438;6.978;2023-02-15T09:06:44;23.83;;;15.20;;
2338;SDS011;1180;51.438;6.978;2023-02-15T09:09:10;22.70;;;14.60;;
2338;SDS011;1180;51.438;6.978;2023-02-15T09:11:37;23.83;;;15.43;;
2338;SDS011;1180;51.438;6.978;2023-02-15T09:14:05;26.10;;;14.80;;
2338;SDS011;1180;51.438;6.978;2023-02-15T09:16:35;22.93;;;14.17;;
2338;SDS011;1180;51.438;6.978;2023-02-15T09:19:02;23.47;;;16.60;;
2338;SDS011;1180;51.438;6.978;2023-02-15T09:21:29;19.13;;;14.07;;
2338;SDS011;1180;51.438;6.978;2023-02-15T09:23:57;20.30;;;13.97;;
2338;SDS011;1180;51.438;6.978;2023-02-15T09:26:24;19.27;;;13.33;;
2338;SDS011;1180;51.438;6.978;2023-02-15T09:28:52;22.07;;;14.40;;
2338;SDS011;1180;51.438;6.978;2023-02-15T09:31:21;19.80;;;14.30;;
2338;SDS011;1180;51.438;6.978;2023-02-15T09:33:48;19.93;;;14.07;;
2338;SDS011;1180;51.438;6.978;2023-02-15T09:36:17;22.30;;;13.60;;
2338;SDS011;1180;51.438;6.978;2023-02-15T09:38:46;15.73;;;12.23;;
2338;SDS011;1180;51.438;6.978;2023-02-15T09:41:17;18.73;;;13.33;;
2338;SDS011;1180;51.438;6.978;2023-02-15T09:43:54;19.27;;;13.80;;
2338;SDS011;1180;51.438;6.978;2023-02-15T09:49:02;17.60;;;13.83;;
2338;SDS011;1180;51.438;6.978;2023-02-15T09:54:39;18.13;;;12.47;;
2338;SDS011;1180;51.438;6.978;2023-02-15T09:57:24;18.20;;;13.40;;
2338;SDS011;1180;51.438;6.978;2023-02-15T10:00:15;19.27;;;13.53;;
2338;SDS011;1180;51.438;6.978;2023-02-15T10:05:30;17.97;;;13.40;;
2338;SDS011;1180;51.438;6.978;2023-02-15T10:10:48;15.57;;;11.20;;
2338;SDS011;1180;51.438;6.978;2023-02-15T10:13:27;18.93;;;12.73;;
2338;SDS011;1180;51.438;6.978;2023-02-15T10:16:28;17.70;;;13.20;;
2338;SDS011;1180;51.438;6.978;2023-02-15T10:19:04;17.93;;;12.97;;
2338;SDS011;1180;51.438;6.978;2023-02-15T10:21:56;16.00;;;12.37;;
2338;SDS011;1180;51.438;6.978;2023-02-15T10:27:13;15.50;;;11.70;;
2338;SDS011;1180;51.438;6.978;2023-02-15T10:29:47;16.47;;;11.23;;
2338;SDS011;1180;51.438;6.978;2023-02-15T10:32:25;16.20;;;11.10;;
2338;SDS011;1180;51.438;6.978;2023-02-15T10:34:57;15.80;;;12.93;;
2338;SDS011;1180;51.438;6.978;2023-02-15T10:40:14;18.43;;;13.10;;
2338;SDS011;1180;51.438;6.978;2023-02-15T10:42:52;17.60;;;12.80;;
2338;SDS011;1180;51.438;6.978;2023-02-15T10:45:40;16.27;;;11.07;;
2338;SDS011;1180;51.438;6.978;2023-02-15T10:48:33;18.03;;;12.73;;
2338;SDS011;1180;51.438;6.978;2023-02-15T10:51:05;18.80;;;11.70;;
2338;SDS011;1180;51.438;6.978;2023-02-15T11:09:47;14.63;;;11.03;;
2338;SDS011;1180;51.438;6.978;2023-02-15T11:12:17;15.13;;;10.10;;
2338;SDS011;1180;51.438;6.978;2023-02-15T11:14:51;15.30;;;10.73;;
2338;SDS011;1180;51.438;6.978;2023-02-15T11:17:42;13.47;;;10.50;;
2338;SDS011;1180;51.438;6.978;2023-02-15T11:20:15;15.50;;;11.53;;
2338;SDS011;1180;51.438;6.978;2023-02-15T11:22:50;15.37;;;11.67;;
2338;SDS011;1180;51.438;6.978;2023-02-15T11:25:19;17.00;;;12.00;;
2338;SDS011;1180;51.438;6.978;2023-02-15T11:27:49;13.00;;;11.20;;
2338;SDS011;1180;51.438;6.978;2023-02-15T11:30:25;13.50;;;10.47;;
2338;SDS011;1180;51.438;6.978;2023-02-15T11:32:55;17.40;;;11.50;;
2338;SDS011;1180;51.438;6.978;2023-02-15T11:35:25;14.00;;;10.20;;
2338;SDS011;1180;51.438;6.978;2023-02-15T11:37:57;14.60;;;10.53;;
2338;SDS011;1180;51.438;6.978;2023-02-15T11:40:25;15.67;;;10.63;;
2338;SDS011;1180;51.438;6.978;2023-02-15T11:42:58;16.10;;;11.10;;
2338;SDS011;1180;51.438;6.978;2023-02-15T11:45:28;15.37;;;10.83;;
2338;SDS011;1180;51.438;6.978;2023-02-15T11:47:55;15.30;;;11.20;;
2338;SDS011;1180;51.438;6.978;2023-02-15T11:50:22;14.10;;;10.00;;
2338;SDS011;1180;51.438;6.978;2023-02-15T11:52:51;14.50;;;10.13;;
2338;SDS011;1180;51.438;6.978;2023-02-15T11:55:21;14.17;;;10.23;;
2338;SDS011;1180;51.438;6.978;2023-02-15T11:57:51;14.10;;;10.50;;
2338;SDS011;1180;51.438;6.978;2023-02-15T12:00:31;11.33;;;8.80;;
2338;SDS011;1180;51.438;6.978;2023-02-15T12:03:02;15.80;;;10.63;;
2338;SDS011;1180;51.438;6.978;2023-02-15T12:05:34;13.00;;;9.17;;
2338;SDS011;1180;51.438;6.978;2023-02-15T12:08:09;13.40;;;10.10;;
2338;SDS011;1180;51.438;6.978;2023-02-15T12:10:41;17.00;;;10.30;;
2338;SDS011;1180;51.438;6.978;2023-02-15T12:13:17;12.80;;;9.87;;
2338;SDS011;1180;51.438;6.978;2023-02-15T12:15:48;14.23;;;10.37;;
2338;SDS011;1180;51.438;6.978;2023-02-15T12:21:12;14.67;;;10.40;;
2338;SDS011;1180;51.438;6.978;2023-02-15T12:23:51;14.50;;;10.10;;
2338;SDS011;1180;51.438;6.978;2023-02-15T12:26:38;13.93;;;10.40;;
2338;SDS011;1180;51.438;6.978;2023-02-15T12:29:07;18.80;;;10.70;;
2338;SDS011;1180;51.438;6.978;2023-02-15T12:31:45;17.63;;;11.00;;
2338;SDS011;1180;51.438;6.978;2023-02-15T12:34:21;14.57;;;10.03;;
2338;SDS011;1180;51.438;6.978;2023-02-15T12:36:53;13.20;;;9.23;;
2338;SDS011;1180;51.438;6.978;2023-02-15T12:39:24;11.90;;;9.30;;
2338;SDS011;1180;51.438;6.978;2023-02-15T12:44:20;12.57;;;9.50;;
2338;SDS011;1180;51.438;6.978;2023-02-15T12:49:41;13.40;;;9.37;;
2338;SDS011;1180;51.438;6.978;2023-02-15T12:54:48;16.17;;;10.97;;
2338;SDS011;1180;51.438;6.978;2023-02-15T12:57:27;13.60;;;9.63;;
2338;SDS011;1180;51.438;6.978;2023-02-15T12:59:55;13.67;;;10.10;;
2338;SDS011;1180;51.438;6.978;2023-02-15T13:02:24;14.10;;;9.20;;
2338;SDS011;1180;51.438;6.978;2023-02-15T13:04:52;14.90;;;10.03;;
2338;SDS011;1180;51.438;6.978;2023-02-15T13:07:18;14.90;;;8.93;;
2338;SDS011;1180;51.438;6.978;2023-02-15T13:09:45;13.00;;;8.57;;
2338;SDS011;1180;51.438;6.978;2023-02-15T13:12:19;14.70;;;9.60;;
2338;SDS011;1180;51.438;6.978;2023-02-15T13:14:51;14.10;;;8.83;;
2338;SDS011;1180;51.438;6.978;2023-02-15T13:17:29;15.13;;;10.40;;
2338;SDS011;1180;51.438;6.978;2023-02-15T13:22:54;13.40;;;9.87;;
2338;SDS011;1180;51.438;6.978;2023-02-15T13:25:28;12.80;;;8.50;;
2338;SDS011;1180;51.438;6.978;2023-02-15T13:28:00;14.40;;;10.33;;
2338;SDS011;1180;51.438;6.978;2023-02-15T13:30:35;15.30;;;9.80;;
2338;SDS011;1180;51.438;6.978;2023-02-15T13:33:04;16.10;;;10.20;;
2338;SDS011;1180;51.438;6.978;2023-02-15T13:35:43;14.30;;;10.10;;
2338;SDS011;1180;51.438;6.978;2023-02-15T13:38:22;16.13;;;10.27;;
2338;SDS011;1180;51.438;6.978;2023-02-15T13:41:01;16.70;;;10.00;;
2338;SDS011;1180;51.438;6.978;2023-02-15T13:43:48;14.10;;;8.77;;
2338;SDS011;1180;51.438;6.978;2023-02-15T13:49:14;13.43;;;9.90;;
2338;SDS011;1180;51.438;6.978;2023-02-15T13:54:36;14.63;;;9.70;;
2338;SDS011;1180;51.438;6.978;2023-02-15T13:57:48;14.07;;;9.87;;
2338;SDS011;1180;51.438;6.978;2023-02-15T14:22:44;14.37;;;10.07;;
2338;SDS011;1180;51.438;6.978;2023-02-15T14:30:55;13.60;;;8.30;;
2338;SDS011;1180;51.438;6.978;2023-02-15T14:33:38;12.13;;;7.83;;
2338;SDS011;1180;51.438;6.978;2023-02-15T14:36:06;12.47;;;9.43;;
2338;SDS011;1180;51.438;6.978;2023-02-15T14:41:53;12.57;;;8.30;;
2338;SDS011;1180;51.438;6.978;2023-02-15T14:44:36;12.00;;;8.50;;
2338;SDS011;1180;51.438;6.978;2023-02-15T14:49:35;11.97;;;7.90;;
2338;SDS011;1180;51.438;6.978;2023-02-15T14:52:07;11.60;;;7.87;;
2338;SDS011;1180;51.438;6.978;2023-02-15T15:04:33;11.17;;;8.57;;
2338;SDS011;1180;51.438;6.978;2023-02-15T15:09:37;12.23;;;8.60;;
2338;SDS011;1180;51.438;6.978;2023-02-15T15:14:41;14.70;;;9.93;;
2338;SDS011;1180;51.438;6.978;2023-02-15T15:17:09;13.00;;;8.73;;
2338;SDS011;1180;51.438;6.978;2023-02-15T15:22:18;10.60;;;8.80;;
2338;SDS011;1180;51.438;6.978;2023-02-15T15:35:18;13.97;;;8.43;;
2338;SDS011;1180;51.438;6.978;2023-02-15T15:41:16;16.37;;;10.20;;
2338;SDS011;1180;51.438;6.978;2023-02-15T15:49:34;11.60;;;8.50;;
2338;SDS011;1180;51.438;6.978;2023-02-15T15:52:03;15.40;;;10.03;;
2338;SDS011;1180;51.438;6.978;2023-02-15T15:54:38;14.67;;;9.60;;
2338;SDS011;1180;51.438;6.978;2023-02-15T15:57:06;15.17;;;8.27;;
2338;SDS011;1180;51.438;6.978;2023-02-15T15:59:43;11.47;;;8.10;;
2338;SDS011;1180;51.438;6.978;2023-02-15T16:02:14;16.77;;;9.53;;
2338;SDS011;1180;51.438;6.978;2023-02-15T16:04:41;14.93;;;11.17;;
2338;SDS011;1180;51.438;6.978;2023-02-15T16:09:41;14.37;;;9.33;;
2338;SDS011;1180;51.438;6.978;2023-02-15T16:12:30;15.73;;;9.30;;
2338;SDS011;1180;51.438;6.978;2023-02-15T16:14:58;15.80;;;9.57;;
2338;SDS011;1180;51.438;6.978;2023-02-15T16:17:30;13.60;;;5.93;;
2338;SDS011;1180;51.438;6.978;2023-02-15T16:20:06;13.83;;;10.10;;
2338;SDS011;1180;51.438;6.978;2023-02-15T16:22:39;11.50;;;7.13;;
2338;SDS011;1180;51.438;6.978;2023-02-15T16:27:48;11.20;;;9.50;;
2338;SDS011;1180;51.438;6.978;2023-02-15T16:30:30;16.13;;;11.03;;
2338;SDS011;1180;51.438;6.978;2023-02-15T16:35:30;13.83;;;7.90;;
2338;SDS011;1180;51.438;6.978;2023-02-15T16:37:56;12.23;;;9.90;;
2338;SDS011;1180;51.438;6.978;2023-02-15T16:40:27;13.70;;;10.07;;
2338;SDS011;1180;51.438;6.978;2023-02-15T16:43:17;13.03;;;9.80;;
2338;SDS011;1180;51.438;6.978;2023-02-15T16:45:47;11.63;;;7.87;;
2338;SDS011;1180;51.438;6.978;2023-02-15T16:48:18;14.50;;;10.20;;
2338;SDS011;1180;51.438;6.978;2023-02-15T16:50:55;13.77;;;10.00;;
2338;SDS011;1180;51.438;6.978;2023-02-15T16:53:26;14.57;;;9.87;;
2338;SDS011;1180;51.438;6.978;2023-02-15T16:55:54;19.53;;;9.17;;
2338;SDS011;1180;51.438;6.978;2023-02-15T16:58:31;12.70;;;10.00;;
2338;SDS011;1180;51.438;6.978;2023-02-15T17:01:02;14.40;;;10.80;;
2338;SDS011;1180;51.438;6.978;2023-02-15T17:03:31;19.50;;;11.20;;
2338;SDS011;1180;51.438;6.978;2023-02-15T17:05:57;11.30;;;9.43;;
2338;SDS011;1180;51.438;6.978;2023-02-15T17:13:27;15.93;;;11.07;;
2338;SDS011;1180;51.438;6.978;2023-02-15T17:18:29;14.07;;;10.00;;
2338;SDS011;1180;51.438;6.978;2023-02-15T17:20:55;14.57;;;11.10;;
2338;SDS011;1180;51.438;6.978;2023-02-15T17:25:56;13.57;;;10.30;;
2338;SDS011;1180;51.438;6.978;2023-02-15T17:28:24;13.83;;;10.10;;
2338;SDS011;1180;51.438;6.978;2023-02-15T17:30:52;14.37;;;9.87;;
2338;SDS011;1180;51.438;6.978;2023-02-15T17:33:40;12.40;;;10.23;;
2338;SDS011;1180;51.438;6.978;2023-02-15T17:36:26;14.60;;;11.30;;
2338;SDS011;1180;51.438;6.978;2023-02-15T17:41:24;15.00;;;11.73;;
2338;SDS011;1180;51.438;6.978;2023-02-15T17:43:50;19.77;;;12.73;;
2338;SDS011;1180;51.438;6.978;2023-02-15T17:46:16;13.87;;;10.70;;
2338;SDS011;1180;51.438;6.978;2023-02-15T17:48:48;13.53;;;10.93;;
2338;SDS011;1180;51.438;6.978;2023-02-15T17:51:15;19.70;;;11.20;;
2338;SDS011;1180;51.438;6.978;2023-02-15T17:53:43;14.30;;;11.10;;
2338;SDS011;1180;51.438;6.978;2023-02-15T17:56:28;16.17;;;10.60;;
2338;SDS011;1180;51.438;6.978;2023-02-15T17:58:53;14.07;;;10.63;;
2338;SDS011;1180;51.438;6.978;2023-02-15T18:01:19;15.47;;;11.13;;
2338;SDS011;1180;51.438;6.978;2023-02-15T18:04:04;13.90;;;11.80;;
2338;SDS011;1180;51.438;6.978;2023-02-15T18:06:52;16.07;;;10.20;;
2338;SDS011;1180;51.438;6.978;2023-02-15T18:09:36;15.10;;;10.80;;
2338;SDS011;1180;51.438;6.978;2023-02-15T18:12:21;14.80;;;10.53;;